| time (UTC) | temp F | wind direction | speed MPH | gust MPH | rain 1hr in | rain 24hr in | rain mn in | humidity % | barometer mb |
| 20260507144558 | 68 | 97 | 6.0 | 10.0 | 0.00 | 0.00 | 0.00 | 29 | 1021.0 |
| 20260507143050 | 68 | 99 | 4.0 | 11.0 | 0.00 | 0.00 | 0.00 | 29 | 1021.0 |
| 20260507141557 | 69 | 82 | 6.0 | 14.0 | 0.00 | 0.00 | 0.00 | 29 | 1021.0 |
| 20260507140057 | 69 | 89 | 7.0 | 13.0 | 0.00 | 0.00 | 0.00 | 28 | 1020.9 |
| 20260507134550 | 70 | 84 | 9.0 | 15.0 | 0.00 | 0.00 | 0.00 | 28 | 1021.0 |
| 20260507133052 | 70 | 89 | 8.0 | 13.0 | 0.00 | 0.00 | 0.00 | 27 | 1020.8 |
| 20260507131550 | 71 | 114 | 8.0 | 14.0 | 0.00 | 0.00 | 0.00 | 27 | 1020.9 |
| 20260507130049 | 71 | 106 | 8.0 | 13.0 | 0.00 | 0.00 | 0.00 | 27 | 1020.8 |
| 20260507124548 | 71 | 91 | 8.0 | 14.0 | 0.00 | 0.00 | 0.00 | 26 | 1020.9 |
| 20260507123052 | 72 | 99 | 8.0 | 12.0 | 0.00 | 0.00 | 0.00 | 26 | 1020.7 |
| 20260507121552 | 72 | 103 | 8.0 | 14.0 | 0.00 | 0.00 | 0.00 | 25 | 1020.7 |
| 20260507120050 | 73 | 98 | 8.0 | 13.0 | 0.00 | 0.00 | 0.00 | 25 | 1020.6 |
| 20260507114552 | 74 | 91 | 7.0 | 11.0 | 0.00 | 0.00 | 0.00 | 25 | 1020.4 |
| 20260507113050 | 73 | 107 | 6.0 | 11.0 | 0.00 | 0.00 | 0.00 | 24 | 1020.3 |
| 20260507111558 | 73 | 85 | 8.0 | 12.0 | 0.00 | 0.00 | 0.00 | 24 | 1020.1 |
| 20260507110049 | 74 | 88 | 8.0 | 12.0 | 0.00 | 0.00 | 0.00 | 23 | 1019.9 |
| 20260507104548 | 74 | 102 | 7.0 | 11.0 | 0.00 | 0.00 | 0.00 | 23 | 1019.6 |
| 20260507103049 | 75 | 95 | 8.0 | 12.0 | 0.00 | 0.00 | 0.00 | 23 | 1019.7 |
| 20260507101601 | 75 | 97 | 8.0 | 13.0 | 0.00 | 0.00 | 0.00 | 23 | 1019.5 |
| 20260507100048 | 76 | 102 | 7.0 | 14.0 | 0.00 | 0.00 | 0.00 | 22 | 1019.5 |
| 20260507094553 | 77 | 95 | 9.0 | 16.0 | 0.00 | 0.00 | 0.00 | 22 | 1019.3 |
| 20260507093054 | 77 | 97 | 11.0 | 19.0 | 0.00 | 0.00 | 0.00 | 23 | 1019.1 |
| 20260507091548 | 78 | 72 | 11.0 | 19.0 | 0.00 | 0.00 | 0.00 | 23 | 1018.9 |
| 20260507090048 | 79 | 83 | 12.0 | 21.0 | 0.00 | 0.00 | 0.00 | 23 | 1018.9 |
| 20260507084544 | 79 | 84 | 13.0 | 20.0 | 0.00 | 0.00 | 0.00 | 23 | 1018.7 |
| 20260507083047 | 80 | 112 | 9.0 | 19.0 | 0.00 | 0.00 | 0.00 | 23 | 1018.5 |
| 20260507081551 | 80 | 86 | 15.0 | 23.0 | 0.00 | 0.00 | 0.00 | 22 | 1018.4 |
| 20260507080055 | 81 | 74 | 10.0 | 16.0 | 0.00 | 0.00 | 0.00 | 21 | 1018.4 |
| 20260507074554 | 82 | 82 | 13.0 | 19.0 | 0.00 | 0.00 | 0.00 | 21 | 1018.3 |
| 20260507073045 | 82 | 151 | 11.0 | 19.0 | 0.00 | 0.00 | 0.00 | 21 | 1018.3 |
| 20260507071546 | 82 | 92 | 11.0 | 24.0 | 0.00 | 0.00 | 0.00 | 22 | 1018.3 |
| 20260507070054 | 82 | 95 | 13.0 | 23.0 | 0.00 | 0.00 | 0.00 | 21 | 1018.4 |
| 20260507064606 | 83 | 90 | 11.0 | 23.0 | 0.00 | 0.00 | 0.00 | 21 | 1018.4 |
| 20260507063052 | 83 | 79 | 15.0 | 26.0 | 0.00 | 0.00 | 0.00 | 21 | 1018.5 |
| 20260507061544 | 83 | 85 | 14.0 | 22.0 | 0.00 | 0.00 | 0.00 | 21 | 1018.5 |
| 20260507060050 | 83 | 110 | 12.0 | 20.0 | 0.00 | 0.00 | 0.00 | 21 | 1018.7 |
| 20260507054550 | 82 | 66 | 14.0 | 30.0 | 0.00 | 0.00 | 0.00 | 22 | 1018.6 |
| 20260507053047 | 83 | 110 | 12.0 | 24.0 | 0.00 | 0.00 | 0.00 | 21 | 1018.7 |
| 20260507051547 | 82 | 85 | 13.0 | 22.0 | 0.00 | 0.00 | 0.00 | 21 | 1019.0 |
| 20260507050055 | 81 | 102 | 15.0 | 32.0 | 0.00 | 0.00 | 0.00 | 22 | 1019.2 |
| 20260507044550 | 82 | 79 | 13.0 | 22.0 | 0.00 | 0.00 | 0.00 | 22 | 1019.5 |
| 20260507043100 | 81 | 95 | 16.0 | 25.0 | 0.00 | 0.00 | 0.00 | 22 | 1019.8 |
| 20260507041600 | 81 | 97 | 15.0 | 26.0 | 0.00 | 0.00 | 0.00 | 22 | 1020.0 |
| 20260507040056 | 80 | 97 | 14.0 | 27.0 | 0.00 | 0.00 | 0.00 | 22 | 1020.3 |
| 20260507034556 | 80 | 101 | 19.0 | 27.0 | 0.00 | 0.00 | 0.00 | 23 | 1020.7 |
| 20260507033046 | 80 | 114 | 15.0 | 25.0 | 0.00 | 0.00 | 0.00 | 23 | 1021.0 |
| 20260507031545 | 80 | 93 | 16.0 | 25.0 | 0.00 | 0.00 | 0.00 | 23 | 1021.1 |
| 20260507030058 | 79 | 72 | 17.0 | 30.0 | 0.00 | 0.00 | 0.00 | 23 | 1021.4 |
| 20260507024548 | 79 | 70 | 15.0 | 27.0 | 0.00 | 0.00 | 0.00 | 23 | 1021.5 |
| 20260507023103 | 78 | 94 | 18.0 | 29.0 | 0.00 | 0.00 | 0.00 | 24 | 1021.4 |
| 20260507021555 | 77 | 72 | 18.0 | 28.0 | 0.00 | 0.00 | 0.00 | 24 | 1021.6 |
| 20260507020051 | 76 | 81 | 20.0 | 28.0 | 0.00 | 0.00 | 0.00 | 25 | 1021.9 |
| 20260507014558 | 76 | 77 | 18.0 | 33.0 | 0.00 | 0.00 | 0.00 | 25 | 1021.7 |
| 20260507013109 | 75 | 81 | 21.0 | 29.0 | 0.00 | 0.00 | 0.00 | 26 | 1021.9 |
| 20260507011547 | 74 | 83 | 17.0 | 31.0 | 0.00 | 0.00 | 0.00 | 27 | 1021.7 |
| 20260507010048 | 73 | 85 | 21.0 | 33.0 | 0.00 | 0.00 | 0.00 | 27 | 1022.0 |
| 20260507004550 | 73 | 95 | 18.0 | 28.0 | 0.00 | 0.00 | 0.00 | 27 | 1021.8 |
| 20260507003101 | 73 | 83 | 13.0 | 24.0 | 0.00 | 0.00 | 0.00 | 28 | 1021.7 |
| 20260507001657 | 71 | 110 | 17.0 | 26.0 | 0.00 | 0.00 | 0.00 | 29 | 1021.6 |
| 20260507000300 | 71 | 85 | 15.0 | 23.0 | 0.00 | 0.00 | 0.00 | 30 | 1021.5 |
| 20260507000228 | 71 | 85 | 15.0 | 23.0 | 0.00 | 0.00 | 0.00 | 30 | 1021.5 |
| 20260506234554 | 70 | 94 | 15.0 | 26.0 | 0.00 | 0.00 | 0.00 | 31 | 1021.1 |
| 20260506233120 | 69 | 109 | 13.0 | 23.0 | 0.00 | 0.00 | 0.00 | 31 | 1020.9 |
| 20260506231629 | 69 | 83 | 11.0 | 19.0 | 0.00 | 0.00 | 0.00 | 32 | 1020.9 |
| 20260506231550 | 69 | 83 | 11.0 | 19.0 | 0.00 | 0.00 | 0.00 | 32 | 1020.9 |
| 20260506230131 | 68 | 93 | 9.0 | 18.0 | 0.00 | 0.00 | 0.00 | 32 | 1020.8 |
| 20260506224614 | 67 | 112 | 7.0 | 15.0 | 0.00 | 0.00 | 0.00 | 33 | 1020.6 |
| 20260506223103 | 67 | 114 | 5.0 | 13.0 | 0.00 | 0.00 | 0.00 | 33 | 1020.3 |
| 20260506221552 | 67 | 117 | 8.0 | 15.0 | 0.00 | 0.00 | 0.00 | 33 | 1020.1 |
| 20260506220117 | 67 | 106 | 8.0 | 15.0 | 0.00 | 0.00 | 0.00 | 33 | 1019.7 |
| 20260506214609 | 68 | 89 | 11.0 | 15.0 | 0.00 | 0.00 | 0.00 | 33 | 1019.5 |
| 20260506213048 | 68 | 99 | 9.0 | 19.0 | 0.00 | 0.00 | 0.00 | 32 | 1019.2 |
| 20260506211548 | 68 | 100 | 11.0 | 18.0 | 0.00 | 0.00 | 0.00 | 32 | 1019.2 |
| 20260506210047 | 69 | 87 | 11.0 | 20.0 | 0.00 | 0.00 | 0.00 | 32 | 1019.1 |
| 20260506204548 | 69 | 89 | 11.0 | 20.0 | 0.00 | 0.00 | 0.00 | 32 | 1018.8 |
| 20260506203049 | 69 | 85 | 12.0 | 19.0 | 0.00 | 0.00 | 0.00 | 32 | 1019.0 |
| 20260506201549 | 69 | 108 | 9.0 | 15.0 | 0.00 | 0.00 | 0.00 | 32 | 1019.0 |
| 20260506200135 | 69 | 115 | 11.0 | 17.0 | 0.00 | 0.00 | 0.00 | 33 | 1018.9 |
| 20260506194550 | 70 | 135 | 8.0 | 13.0 | 0.00 | 0.00 | 0.00 | 33 | 1018.7 |
| 20260506193052 | 71 | 118 | 9.0 | 16.0 | 0.00 | 0.00 | 0.00 | 33 | 1018.7 |
| 20260506191552 | 71 | 109 | 9.0 | 19.0 | 0.00 | 0.00 | 0.00 | 33 | 1018.7 |
| 20260506190049 | 72 | 133 | 8.0 | 18.0 | 0.00 | 0.00 | 0.00 | 32 | 1018.6 |
| 20260506184552 | 72 | 121 | 10.0 | 18.0 | 0.00 | 0.00 | 0.00 | 32 | 1018.5 |
| 20260506183053 | 72 | 101 | 9.0 | 16.0 | 0.00 | 0.00 | 0.00 | 32 | 1018.4 |
| 20260506181550 | 72 | 98 | 8.0 | 14.0 | 0.00 | 0.00 | 0.00 | 33 | 1018.4 |
| 20260506180053 | 72 | 105 | 10.0 | 16.0 | 0.00 | 0.00 | 0.00 | 33 | 1018.3 |
| 20260506174556 | 73 | 107 | 10.0 | 17.0 | 0.00 | 0.00 | 0.00 | 33 | 1018.0 |
| 20260506173106 | 73 | 85 | 9.0 | 19.0 | 0.00 | 0.00 | 0.00 | 33 | 1018.1 |
| 20260506171558 | 73 | 95 | 11.0 | 21.0 | 0.00 | 0.00 | 0.00 | 33 | 1018.1 |
| 20260506170052 | 74 | 88 | 12.0 | 22.0 | 0.00 | 0.00 | 0.00 | 32 | 1018.1 |
| 20260506164551 | 74 | 99 | 14.0 | 23.0 | 0.00 | 0.00 | 0.00 | 32 | 1018.1 |
| 20260506163052 | 75 | 113 | 14.0 | 26.0 | 0.00 | 0.00 | 0.00 | 32 | 1018.2 |
| 20260506161557 | 75 | 97 | 12.0 | 24.0 | 0.00 | 0.00 | 0.00 | 32 | 1018.1 |
| 20260506160107 | 76 | 81 | 13.0 | 19.0 | 0.00 | 0.00 | 0.00 | 32 | 1018.2 |
| 20260506154552 | 76 | 93 | 12.0 | 25.0 | 0.00 | 0.00 | 0.00 | 32 | 1018.1 |
| 20260506153046 | 76 | 83 | 12.0 | 20.0 | 0.00 | 0.00 | 0.00 | 32 | 1017.8 |
| 20260506151554 | 76 | 92 | 9.0 | 18.0 | 0.00 | 0.00 | 0.00 | 33 | 1017.8 |
| 20260506150048 | 77 | 88 | 10.0 | 15.0 | 0.00 | 0.00 | 0.00 | 33 | 1017.9 |